Latest Coastal Weather Observations for Kiama

IDN60701

Issued at 3:21 pm EDT Saturday 25 February 2017 (issued every 10 minutes, with the page automatically refreshed every 10 minutes)

About coastal observations | Map of coastal stations | Coastal observations for NSW | Marine services | Other Formats
Station Details ID: 068242 Name: KIAMA (BOMBO HEADLAND) Lat: -34.65 Lon: 150.86 Height: 15.5 m
Data from the previous 72 hours. | See also: Recent months at Kiama
Date/Time
EDT
Temp
°C
Wind Pressure Rain since
9am
mm
Weather Cloud Vis
km
Sea
Height
m
Swell
Dir  Spd
kts
Gust
kts
hPa Trend Height
m
Period
s
Dir
25/03:00pm 19.1 SSW 17 26 - - 0.0 - - - - - - -
25/02:30pm 19.8 SSW 16 23 - - 0.0 - - - - - - -
25/02:00pm 20.2 SSW 14 20 - - 0.0 - - - - - - -
25/01:30pm 19.9 SSW 13 18 - - 0.0 - - - - - - -
25/01:00pm 19.8 SSW 12 17 - - 0.0 - - - - - - -
25/12:30pm 19.1 SSW 14 24 - - 0.0 - - - - - - -
25/12:00pm 18.8 SSW 12 19 - - 0.0 - - - - - - -
25/11:30am 18.6 SW 12 18 - - 0.0 - - - - - - -
25/11:00am 18.6 SSW 15 20 - - 0.0 - - - - - - -
25/10:30am 18.7 SSW 13 20 - - 0.0 - - - - - - -
25/10:00am 18.6 SSW 15 22 - - 0.0 - - - - - - -
25/09:30am 18.1 SSW 16 22 - - 0.0 - - - - - - -
25/09:00am 17.8 SSW 15 23 - - 2.0 - - - - - - -
25/08:30am 17.6 SSW 16 23 - - 2.0 - - - - - - -
25/08:00am 17.4 SSW 16 25 - - 2.0 - - - - - - -
25/07:52am 17.3 SSW 15 25 - - 2.0 - - - - - - -
25/07:30am 17.2 SSW 15 21 - - 2.0 - - - - - - -
25/07:00am 17.3 SSW 16 23 - - 2.0 - - - - - - -
25/06:30am 17.5 SSW 14 19 - - 2.0 - - - - - - -
25/06:00am 17.4 SSW 14 20 - - 2.0 - - - - - - -
25/05:30am 17.5 SSW 15 22 - - 2.0 - - - - - - -
25/05:00am 17.4 SSW 16 24 - - 2.0 - - - - - - -
25/04:30am 17.5 SSW 16 21 - - 2.0 - - - - - - -
25/04:00am 17.7 SSW 15 19 - - 2.0 - - - - - - -
25/03:30am 17.7 SSW 17 21 - - 2.0 - - - - - - -
25/03:00am 17.9 SSW 20 25 - - 2.0 - - - - - - -
25/02:30am 18.1 SSW 20 25 - - 2.0 - - - - - - -
25/02:00am 18.1 SSW 21 27 - - 2.0 - - - - - - -
25/01:30am 18.4 SSW 19 24 - - 2.0 - - - - - - -
25/01:00am 18.5 SSW 21 27 - - 2.0 - - - - - - -
25/12:30am 18.9 SSW 20 26 - - 1.8 - - - - - - -
25/12:00am 19.2 SSW 23 31 - - 1.4 Recent precip. - - - - - -
 
Date/Time
EDT
Temp
°C
Wind Pressure Rain since
9am
mm
Weather Cloud Vis
km
Sea
Height
m
Swell
Dir  Spd
kts
Gust
kts
hPa Trend Height
m
Period
s
Dir
24/11:34pm 19.6 SSW 24 34 - - 1.2 - - - - - - -
24/11:30pm 19.8 SSW 23 29 - - 1.0 - - - - - - -
24/11:00pm 19.9 SSW 20 26 - - 0.6 - - - - - - -
24/10:30pm 20.1 SSW 17 25 - - 0.4 - - - - - - -
24/10:00pm 20.3 SSW 21 25 - - 0.2 - - - - - - -
24/09:30pm 20.5 SSW 16 23 - - 0.0 - - - - - - -
24/09:00pm 21.1 SSW 22 29 - - 0.0 - - - - - - -
24/08:30pm 21.3 SSW 17 22 - - 0.0 - - - - - - -
24/08:00pm 21.5 SSW 14 20 - - 0.0 - - - - - - -
24/07:30pm 21.6 SW 9 17 - - 0.0 - - - - - - -
24/07:00pm 21.6 SSW 14 18 - - 0.0 - - - - - - -
24/06:30pm 21.5 SSW 15 20 - - 0.0 - - - - - - -
24/06:00pm 21.7 SSW 12 16 - - 0.0 - - - - - - -
24/05:30pm 21.6 SSW 17 20 - - 0.0 - - - - - - -
24/05:00pm 21.6 S 17 22 - - 0.0 - - - - - - -
24/04:30pm 21.8 S 17 22 - - 0.0 - - - - - - -
24/04:00pm 22.3 S 15 20 - - 0.0 - - - - - - -
24/03:30pm 22.2 S 14 19 - - 0.0 - - - - - - -
24/03:00pm 21.7 S 17 21 - - 0.0 - - - - - - -
24/02:30pm 22.0 S 16 21 - - 0.0 - - - - - - -
24/02:00pm 21.4 S 16 20 - - 0.0 - - - - - - -
24/01:30pm 21.5 S 16 21 - - 0.0 - - - - - - -
24/01:00pm 21.6 S 14 18 - - 0.0 - - - - - - -
24/12:30pm 21.9 S 15 20 - - 0.0 - - - - - - -
24/12:00pm 22.5 S 14 19 - - 0.0 - - - - - - -
24/11:30am 22.9 S 13 17 - - 0.0 - - - - - - -
24/11:00am 22.8 SSW 10 13 - - 0.0 - - - - - - -
24/10:30am 22.7 SSW 12 16 - - 0.0 - - - - - - -
24/10:00am 22.8 SW 9 12 - - 0.0 - - - - - - -
24/09:30am 22.1 SSW 10 15 - - 0.0 - - - - - - -
24/09:00am 21.9 SW 10 13 - - 0.0 - - - - - - -
24/08:30am 21.7 SSW 5 7 - - - - - - - - - -
24/08:00am 21.5 SW 6 8 - - - - - - - - - -
24/07:30am 21.1 SW 6 11 - - - - - - - - - -
24/07:00am 21.1 SSW 8 11 - - - - - - - - - -
24/06:30am 21.1 SSW 5 9 - - - - - - - - - -
24/06:00am 21.1 SSW 6 9 - - - - - - - - - -
24/05:30am 21.2 SSW 9 14 - - - - - - - - - -
24/05:00am 21.2 SSW 7 11 - - - - - - - - - -
24/04:30am 20.6 S 9 12 - - - - - - - - - -
24/04:00am 20.5 S 9 12 - - - - - - - - - -
24/03:30am 20.4 SSE 10 11 - - - - - - - - - -
24/03:00am 21.2 SSE 11 13 - - 0.0 - - - - - - -
24/02:30am 21.3 SSE 10 13 - - - - - - - - - -
24/02:00am 21.4 SSE 10 11 - - - - - - - - - -
24/01:30am 21.8 SE 6 10 - - - - - - - - - -
24/01:00am 21.5 SSE 2 4 - - - - - - - - - -
24/12:30am 21.4 NNW 3 6 - - - - - - - - - -
24/12:00am 21.6 N 4 6 - - - - - - - - - -
 
Date/Time
EDT
Temp
°C
Wind Pressure Rain since
9am
mm
Weather Cloud Vis
km
Sea
Height
m
Swell
Dir  Spd
kts
Gust
kts
hPa Trend Height
m
Period
s
Dir
23/11:30pm 21.8 N 5 7 - - - - - - - - - -
23/11:00pm 22.1 N 5 9 - - - - - - - - - -
23/10:30pm 22.6 N 7 11 - - - - - - - - - -
23/10:00pm 23.1 N 8 15 - - - - - - - - - -
23/09:30pm 22.7 N 11 15 - - - - - - - - - -
23/09:00pm 22.8 N 8 12 - - 0.0 - - - - - - -
23/08:30pm 22.6 N 13 17 - - - - - - - - - -
23/08:00pm 22.9 N 13 19 - - - - - - - - - -
23/07:30pm 23.3 N 14 22 - - - - - - - - - -
23/07:00pm 23.2 N 13 19 - - - - - - - - - -
23/06:30pm 23.5 N 12 18 - - - - - - - - - -
23/06:00pm 23.8 N 12 18 - - - - - - - - - -
23/05:30pm 24.2 N 12 18 - - - - - - - - - -
23/05:00pm 24.3 N 14 20 - - - - - - - - - -
23/04:30pm 24.6 N 13 20 - - - - - - - - - -
23/04:00pm 24.6 N 14 19 - - - - - - - - - -
23/03:30pm 25.0 N 14 19 - - - - - - - - - -
23/03:00pm 25.0 NNE 14 20 - - - - - - - - - -
23/02:30pm 24.8 - - - - - - - - - - - - -
23/01:30pm 25.0 NNE 12 18 - - 0.0 - - - - - - -
23/01:00pm 24.9 NNE 10 14 - - 0.0 - - - - - - -
23/12:30pm 24.5 NNE 11 18 - - 0.0 - - - - - - -
23/12:00pm 24.1 NNE 14 20 - - 0.0 - - - - - - -
23/11:30am 23.9 NNE 14 20 - - 0.0 - - - - - - -
23/11:00am 24.0 NNE 11 16 - - 0.0 - - - - - - -
23/10:30am 23.7 NNE 11 14 - - 0.0 - - - - - - -
23/10:00am 23.1 NNE 11 15 - - 0.0 - - - - - - -
23/09:30am 23.1 NNE 9 13 - - 0.0 - - - - - - -
23/09:00am 22.6 NNE 8 10 - - 0.0 - - - - - - -
23/08:30am 21.9 N 8 11 - - 0.0 - - - - - - -
23/08:00am 21.0 N 4 7 - - 0.0 - - - - - - -
23/07:30am 20.1 NNW 7 10 - - 0.0 - - - - - - -
23/07:00am 19.7 NNW 8 11 - - 0.0 - - - - - - -
23/06:30am 19.1 NW 6 8 - - 0.0 - - - - - - -
23/06:00am 19.6 NNW 6 9 - - 0.0 - - - - - - -
23/05:30am 19.5 NNW 4 6 - - 0.0 - - - - - - -
23/05:00am 19.7 NNW 5 7 - - 0.0 - - - - - - -
23/04:30am 19.9 NNW 4 9 - - 0.0 - - - - - - -
23/04:00am 20.2 NNW 4 6 - - 0.0 - - - - - - -
23/03:30am 20.1 NNW 3 5 - - 0.0 - - - - - - -
23/03:00am 20.4 N 2 4 - - 0.0 - - - - - - -
23/02:30am 21.4 N 8 12 - - 0.0 - - - - - - -
23/02:00am 21.0 N 3 6 - - 0.0 - - - - - - -
23/01:30am 21.2 N 4 6 - - 0.0 - - - - - - -
23/01:00am 21.6 N 4 7 - - 0.0 - - - - - - -
23/12:30am 21.8 N 4 7 - - 0.0 - - - - - - -
23/12:00am 22.1 N 6 9 - - 0.0 - - - - - - -
 
Date/Time
EDT
Temp
°C
Wind Pressure Rain since
9am
mm
Weather Cloud Vis
km
Sea
Height
m
Swell
Dir  Spd
kts
Gust
kts
hPa Trend Height
m
Period
s
Dir
22/11:30pm 22.5 N 7 12 - - 0.0 - - - - - - -
22/11:00pm 22.7 N 8 12 - - 0.0 - - - - - - -
22/10:30pm 23.0 N 7 11 - - 0.0 - - - - - - -
22/10:00pm 23.4 N 12 18 - - 0.0 - - - - - - -
22/09:30pm 23.6 N 11 20 - - 0.0 - - - - - - -
22/09:00pm 23.6 N 12 19 - - 0.0 - - - - - - -
22/08:30pm 23.4 N 14 19 - - 0.0 - - - - - - -
22/08:00pm 23.4 N 17 22 - - 0.0 - - - - - - -
22/07:30pm 23.3 N 14 18 - - 0.0 - - - - - - -
22/07:00pm 23.6 N 15 19 - - 0.0 - - - - - - -
22/06:30pm 24.1 NNE 12 17 - - 0.0 - - - - - - -
22/06:00pm 24.5 NNE 13 19 - - 0.0 - - - - - - -
22/05:30pm 24.9 NNE 13 20 - - 0.0 - - - - - - -
22/05:00pm 25.1 NNE 12 18 - - 0.0 - - - - - - -
22/04:30pm 25.0 NNE 13 21 - - 0.0 - - - - - - -
22/04:00pm 24.7 NNE 16 24 - - 0.0 - - - - - - -
22/03:30pm 24.9 NNE 16 22 - - 0.0 - - - - - - -

Other Formats:

Comma delimited format used in spreadsheet applications
http://www.bom.gov.au/fwo/IDN60701/IDN60701.95749.axf

JavaScript Object Notation format (JSON) in row-major order
http://www.bom.gov.au/fwo/IDN60701/IDN60701.95749.json